sensor_id;sensor_type;location;lat;lon;timestamp;pressure;altitude;pressure_sealevel;temperature
68510;BMP180;55512;50.102;19.958;2023-09-08T00:02:16;99601.40;;;17.00
68510;BMP180;55512;50.102;19.958;2023-09-08T00:04:41;99602.00;;;16.96
68510;BMP180;55512;50.102;19.958;2023-09-08T00:07:07;99603.20;;;16.90
68510;BMP180;55512;50.102;19.958;2023-09-08T00:09:32;99603.20;;;16.90
68510;BMP180;55512;50.102;19.958;2023-09-08T00:11:58;99601.20;;;16.90
68510;BMP180;55512;50.102;19.958;2023-09-08T00:14:24;99599.00;;;16.90
68510;BMP180;55512;50.102;19.958;2023-09-08T00:16:52;99603.60;;;16.90
68510;BMP180;55512;50.102;19.958;2023-09-08T00:19:20;99605.40;;;16.90
68510;BMP180;55512;50.102;19.958;2023-09-08T00:21:46;99606.80;;;16.90
68510;BMP180;55512;50.102;19.958;2023-09-08T00:24:11;99606.60;;;16.90
68510;BMP180;55512;50.102;19.958;2023-09-08T00:26:37;99607.00;;;16.90
68510;BMP180;55512;50.102;19.958;2023-09-08T00:29:03;99606.00;;;16.90
68510;BMP180;55512;50.102;19.958;2023-09-08T00:31:28;99608.00;;;16.90
68510;BMP180;55512;50.102;19.958;2023-09-08T00:33:54;99606.00;;;16.90
68510;BMP180;55512;50.102;19.958;2023-09-08T00:36:19;99605.00;;;16.92
68510;BMP180;55512;50.102;19.958;2023-09-08T00:38:44;99606.00;;;17.00
68510;BMP180;55512;50.102;19.958;2023-09-08T00:41:10;99602.40;;;17.00
68510;BMP180;55512;50.102;19.958;2023-09-08T00:43:35;99601.20;;;17.00
68510;BMP180;55512;50.102;19.958;2023-09-08T00:46:01;99597.00;;;16.92
68510;BMP180;55512;50.102;19.958;2023-09-08T00:48:28;99598.00;;;16.90
68510;BMP180;55512;50.102;19.958;2023-09-08T00:50:54;99590.00;;;16.90
68510;BMP180;55512;50.102;19.958;2023-09-08T00:53:21;99592.00;;;16.90
68510;BMP180;55512;50.102;19.958;2023-09-08T00:55:47;99592.80;;;16.90
68510;BMP180;55512;50.102;19.958;2023-09-08T00:58:13;99589.00;;;16.90
68510;BMP180;55512;50.102;19.958;2023-09-08T01:00:39;99589.40;;;16.80
68510;BMP180;55512;50.102;19.958;2023-09-08T01:03:04;99586.80;;;16.80
68510;BMP180;55512;50.102;19.958;2023-09-08T01:05:30;99584.00;;;16.70
68510;BMP180;55512;50.102;19.958;2023-09-08T01:07:58;99583.00;;;16.70
68510;BMP180;55512;50.102;19.958;2023-09-08T01:10:24;99586.60;;;16.70
68510;BMP180;55512;50.102;19.958;2023-09-08T01:12:50;99585.20;;;16.64
68510;BMP180;55512;50.102;19.958;2023-09-08T01:15:15;99584.40;;;16.62
68510;BMP180;55512;50.102;19.958;2023-09-08T01:17:40;99585.00;;;16.70
68510;BMP180;55512;50.102;19.958;2023-09-08T01:20:24;99588.80;;;16.70
68510;BMP180;55512;50.102;19.958;2023-09-08T01:23:21;99585.80;;;16.70
68510;BMP180;55512;50.102;19.958;2023-09-08T01:26:04;99582.80;;;16.70
68510;BMP180;55512;50.102;19.958;2023-09-08T01:28:33;99581.00;;;16.70
68510;BMP180;55512;50.102;19.958;2023-09-08T01:31:00;99581.00;;;16.62
68510;BMP180;55512;50.102;19.958;2023-09-08T01:33:26;99584.40;;;16.60
68510;BMP180;55512;50.102;19.958;2023-09-08T01:35:52;99582.40;;;16.60
68510;BMP180;55512;50.102;19.958;2023-09-08T01:38:18;99584.40;;;16.50
68510;BMP180;55512;50.102;19.958;2023-09-08T01:40:44;99579.40;;;16.50
68510;BMP180;55512;50.102;19.958;2023-09-08T01:43:09;99580.00;;;16.40
68510;BMP180;55512;50.102;19.958;2023-09-08T01:45:34;99584.60;;;16.40
68510;BMP180;55512;50.102;19.958;2023-09-08T01:48:00;99582.00;;;16.32
68510;BMP180;55512;50.102;19.958;2023-09-08T01:50:25;99576.00;;;16.30
68510;BMP180;55512;50.102;19.958;2023-09-08T01:52:51;99578.80;;;16.20
68510;BMP180;55512;50.102;19.958;2023-09-08T01:55:17;99579.60;;;16.20
68510;BMP180;55512;50.102;19.958;2023-09-08T01:57:43;99576.00;;;16.12
68510;BMP180;55512;50.102;19.958;2023-09-08T02:00:11;99577.20;;;16.10
68510;BMP180;55512;50.102;19.958;2023-09-08T02:02:36;99578.00;;;16.00
68510;BMP180;55512;50.102;19.958;2023-09-08T02:05:02;99576.80;;;15.90
68510;BMP180;55512;50.102;19.958;2023-09-08T02:07:27;99578.40;;;15.90
68510;BMP180;55512;50.102;19.958;2023-09-08T02:09:53;99582.80;;;15.80
68510;BMP180;55512;50.102;19.958;2023-09-08T02:12:18;99580.40;;;15.80
68510;BMP180;55512;50.102;19.958;2023-09-08T02:14:43;99584.20;;;15.70
68510;BMP180;55512;50.102;19.958;2023-09-08T02:17:09;99586.40;;;15.70
68510;BMP180;55512;50.102;19.958;2023-09-08T02:19:35;99589.00;;;15.60
68510;BMP180;55512;50.102;19.958;2023-09-08T02:22:00;99586.40;;;15.60
68510;BMP180;55512;50.102;19.958;2023-09-08T02:24:25;99590.00;;;15.52
68510;BMP180;55512;50.102;19.958;2023-09-08T02:26:51;99586.40;;;15.50
68510;BMP180;55512;50.102;19.958;2023-09-08T02:29:17;99578.40;;;15.50
68510;BMP180;55512;50.102;19.958;2023-09-08T02:31:42;99575.20;;;15.40
68510;BMP180;55512;50.102;19.958;2023-09-08T02:34:08;99570.60;;;15.40
68510;BMP180;55512;50.102;19.958;2023-09-08T02:36:34;99565.40;;;15.40
68510;BMP180;55512;50.102;19.958;2023-09-08T02:38:59;99563.40;;;15.40
68510;BMP180;55512;50.102;19.958;2023-09-08T02:41:25;99561.20;;;15.36
68510;BMP180;55512;50.102;19.958;2023-09-08T02:43:50;99558.20;;;15.34
68510;BMP180;55512;50.102;19.958;2023-09-08T02:46:15;99555.40;;;15.38
68510;BMP180;55512;50.102;19.958;2023-09-08T02:48:41;99555.40;;;15.38
68510;BMP180;55512;50.102;19.958;2023-09-08T02:51:07;99555.60;;;15.40
68510;BMP180;55512;50.102;19.958;2023-09-08T02:53:33;99550.60;;;15.30
68510;BMP180;55512;50.102;19.958;2023-09-08T02:55:59;99553.60;;;15.30
68510;BMP180;55512;50.102;19.958;2023-09-08T02:58:26;99555.40;;;15.30
68510;BMP180;55512;50.102;19.958;2023-09-08T03:00:52;99552.00;;;15.30
68510;BMP180;55512;50.102;19.958;2023-09-08T03:03:21;99549.60;;;15.30
68510;BMP180;55512;50.102;19.958;2023-09-08T03:05:47;99544.80;;;15.30
68510;BMP180;55512;50.102;19.958;2023-09-08T03:08:12;99540.40;;;15.22
68510;BMP180;55512;50.102;19.958;2023-09-08T03:10:40;99545.00;;;15.20
68510;BMP180;55512;50.102;19.958;2023-09-08T03:13:06;99543.80;;;15.20
68510;BMP180;55512;50.102;19.958;2023-09-08T03:15:32;99540.60;;;15.20
68510;BMP180;55512;50.102;19.958;2023-09-08T03:17:59;99538.80;;;15.20
68510;BMP180;55512;50.102;19.958;2023-09-08T03:20:25;99538.40;;;15.20
68510;BMP180;55512;50.102;19.958;2023-09-08T03:22:54;99539.00;;;15.18
68510;BMP180;55512;50.102;19.958;2023-09-08T03:25:20;99533.20;;;15.10
68510;BMP180;55512;50.102;19.958;2023-09-08T03:27:46;99530.80;;;15.10
68510;BMP180;55512;50.102;19.958;2023-09-08T03:30:12;99531.20;;;15.10
68510;BMP180;55512;50.102;19.958;2023-09-08T03:32:38;99535.00;;;15.02
68510;BMP180;55512;50.102;19.958;2023-09-08T03:35:04;99533.20;;;15.00
68510;BMP180;55512;50.102;19.958;2023-09-08T03:37:36;99533.40;;;15.00
68510;BMP180;55512;50.102;19.958;2023-09-08T03:40:02;99532.40;;;14.90
68510;BMP180;55512;50.102;19.958;2023-09-08T03:42:30;99530.40;;;14.90
68510;BMP180;55512;50.102;19.958;2023-09-08T03:44:56;99530.80;;;14.90
68510;BMP180;55512;50.102;19.958;2023-09-08T03:47:21;99526.20;;;14.90
68510;BMP180;55512;50.102;19.958;2023-09-08T03:49:46;99525.20;;;14.90
68510;BMP180;55512;50.102;19.958;2023-09-08T03:52:12;99520.60;;;14.90
68510;BMP180;55512;50.102;19.958;2023-09-08T03:54:37;99518.40;;;14.80
68510;BMP180;55512;50.102;19.958;2023-09-08T03:57:03;99514.80;;;14.80
68510;BMP180;55512;50.102;19.958;2023-09-08T03:59:29;99512.80;;;14.76
68510;BMP180;55512;50.102;19.958;2023-09-08T04:01:54;99510.20;;;14.70
68510;BMP180;55512;50.102;19.958;2023-09-08T04:04:20;99514.20;;;14.66
68510;BMP180;55512;50.102;19.958;2023-09-08T04:06:45;99515.40;;;14.60
68510;BMP180;55512;50.102;19.958;2023-09-08T04:09:11;99514.40;;;14.50
68510;BMP180;55512;50.102;19.958;2023-09-08T04:11:37;99515.40;;;14.50
68510;BMP180;55512;50.102;19.958;2023-09-08T04:14:02;99515.80;;;14.40
68510;BMP180;55512;50.102;19.958;2023-09-08T04:16:28;99519.40;;;14.40
68510;BMP180;55512;50.102;19.958;2023-09-08T04:18:54;99515.80;;;14.40
68510;BMP180;55512;50.102;19.958;2023-09-08T04:21:19;99519.20;;;14.40
68510;BMP180;55512;50.102;19.958;2023-09-08T04:23:45;99521.00;;;14.40
68510;BMP180;55512;50.102;19.958;2023-09-08T04:26:12;99521.80;;;14.50
68510;BMP180;55512;50.102;19.958;2023-09-08T04:28:37;99521.20;;;14.50
68510;BMP180;55512;50.102;19.958;2023-09-08T04:31:03;99526.20;;;14.60
68510;BMP180;55512;50.102;19.958;2023-09-08T04:33:29;99527.00;;;14.60
68510;BMP180;55512;50.102;19.958;2023-09-08T04:35:55;99521.80;;;14.60
68510;BMP180;55512;50.102;19.958;2023-09-08T04:38:20;99521.80;;;14.60
68510;BMP180;55512;50.102;19.958;2023-09-08T04:40:46;99525.20;;;14.60
68510;BMP180;55512;50.102;19.958;2023-09-08T04:43:12;99520.40;;;14.60
68510;BMP180;55512;50.102;19.958;2023-09-08T04:45:37;99523.60;;;14.60
68510;BMP180;55512;50.102;19.958;2023-09-08T04:48:04;99523.60;;;14.62
68510;BMP180;55512;50.102;19.958;2023-09-08T04:50:30;99517.80;;;14.70
68510;BMP180;55512;50.102;19.958;2023-09-08T04:52:55;99518.20;;;14.70
68510;BMP180;55512;50.102;19.958;2023-09-08T04:55:21;99513.80;;;14.80
68510;BMP180;55512;50.102;19.958;2023-09-08T04:57:46;99520.00;;;14.90
68510;BMP180;55512;50.102;19.958;2023-09-08T05:00:12;99524.40;;;14.92
68510;BMP180;55512;50.102;19.958;2023-09-08T05:02:38;99521.60;;;15.00
68510;BMP180;55512;50.102;19.958;2023-09-08T05:05:04;99521.80;;;15.08
68510;BMP180;55512;50.102;19.958;2023-09-08T05:07:29;99522.80;;;15.10
68510;BMP180;55512;50.102;19.958;2023-09-08T05:09:55;99522.00;;;15.20
68510;BMP180;55512;50.102;19.958;2023-09-08T05:12:20;99524.00;;;15.20
68510;BMP180;55512;50.102;19.958;2023-09-08T05:14:46;99525.60;;;15.20
68510;BMP180;55512;50.102;19.958;2023-09-08T05:17:11;99526.60;;;15.30
68510;BMP180;55512;50.102;19.958;2023-09-08T05:19:37;99531.40;;;15.30
68510;BMP180;55512;50.102;19.958;2023-09-08T05:22:06;99534.20;;;15.40
68510;BMP180;55512;50.102;19.958;2023-09-08T05:24:34;99537.40;;;15.50
68510;BMP180;55512;50.102;19.958;2023-09-08T05:26:59;99540.20;;;15.50
68510;BMP180;55512;50.102;19.958;2023-09-08T05:29:25;99535.20;;;15.60
68510;BMP180;55512;50.102;19.958;2023-09-08T05:31:50;99533.60;;;15.70
68510;BMP180;55512;50.102;19.958;2023-09-08T05:34:16;99530.40;;;15.78
68510;BMP180;55512;50.102;19.958;2023-09-08T05:36:42;99531.80;;;15.80
68510;BMP180;55512;50.102;19.958;2023-09-08T05:39:08;99532.60;;;15.90
68510;BMP180;55512;50.102;19.958;2023-09-08T05:41:33;99534.20;;;16.00
68510;BMP180;55512;50.102;19.958;2023-09-08T05:44:00;99532.20;;;16.00
68510;BMP180;55512;50.102;19.958;2023-09-08T05:46:25;99537.40;;;16.10
68510;BMP180;55512;50.102;19.958;2023-09-08T05:48:51;99535.20;;;16.16
68510;BMP180;55512;50.102;19.958;2023-09-08T05:51:16;99541.60;;;16.20
68510;BMP180;55512;50.102;19.958;2023-09-08T05:53:42;99543.60;;;16.30
68510;BMP180;55512;50.102;19.958;2023-09-08T05:56:08;99543.40;;;16.40
68510;BMP180;55512;50.102;19.958;2023-09-08T05:58:33;99546.40;;;16.40
68510;BMP180;55512;50.102;19.958;2023-09-08T06:01:03;99545.80;;;16.50
68510;BMP180;55512;50.102;19.958;2023-09-08T06:03:29;99543.00;;;16.60
68510;BMP180;55512;50.102;19.958;2023-09-08T06:05:58;99539.80;;;16.66
68510;BMP180;55512;50.102;19.958;2023-09-08T06:08:23;99543.20;;;16.70
68510;BMP180;55512;50.102;19.958;2023-09-08T06:10:49;99546.80;;;16.80
68510;BMP180;55512;50.102;19.958;2023-09-08T06:13:15;99542.60;;;16.90
68510;BMP180;55512;50.102;19.958;2023-09-08T06:15:40;99543.40;;;16.92
68510;BMP180;55512;50.102;19.958;2023-09-08T06:18:06;99543.80;;;17.00
68510;BMP180;55512;50.102;19.958;2023-09-08T06:20:31;99545.80;;;17.10
68510;BMP180;55512;50.102;19.958;2023-09-08T06:22:57;99547.40;;;17.10
68510;BMP180;55512;50.102;19.958;2023-09-08T06:25:23;99550.60;;;17.20
68510;BMP180;55512;50.102;19.958;2023-09-08T06:27:48;99547.80;;;17.30
68510;BMP180;55512;50.102;19.958;2023-09-08T06:30:13;99545.00;;;17.30
68510;BMP180;55512;50.102;19.958;2023-09-08T06:32:41;99547.40;;;17.40
68510;BMP180;55512;50.102;19.958;2023-09-08T06:35:08;99551.60;;;17.48
68510;BMP180;55512;50.102;19.958;2023-09-08T06:37:37;99553.20;;;17.50
68510;BMP180;55512;50.102;19.958;2023-09-08T06:40:05;99556.80;;;17.60
68510;BMP180;55512;50.102;19.958;2023-09-08T06:42:31;99554.60;;;17.62
68510;BMP180;55512;50.102;19.958;2023-09-08T06:44:59;99557.60;;;17.70
68510;BMP180;55512;50.102;19.958;2023-09-08T06:47:25;99550.80;;;17.80
68510;BMP180;55512;50.102;19.958;2023-09-08T06:49:51;99549.20;;;17.86
68510;BMP180;55512;50.102;19.958;2023-09-08T06:52:17;99552.20;;;17.90
68510;BMP180;55512;50.102;19.958;2023-09-08T06:54:43;99545.20;;;17.94
68510;BMP180;55512;50.102;19.958;2023-09-08T06:57:12;99544.60;;;18.00
68510;BMP180;55512;50.102;19.958;2023-09-08T06:59:37;99548.60;;;18.10
68510;BMP180;55512;50.102;19.958;2023-09-08T07:02:03;99544.60;;;18.14
68510;BMP180;55512;50.102;19.958;2023-09-08T07:04:30;99546.00;;;18.20
68510;BMP180;55512;50.102;19.958;2023-09-08T07:06:55;99546.60;;;18.30
68510;BMP180;55512;50.102;19.958;2023-09-08T07:09:21;99548.40;;;18.38
68510;BMP180;55512;50.102;19.958;2023-09-08T07:11:46;99549.40;;;18.40
68510;BMP180;55512;50.102;19.958;2023-09-08T07:14:12;99547.40;;;18.50
68510;BMP180;55512;50.102;19.958;2023-09-08T07:16:38;99546.20;;;18.58
68510;BMP180;55512;50.102;19.958;2023-09-08T07:19:03;99543.00;;;18.60
68510;BMP180;55512;50.102;19.958;2023-09-08T07:21:29;99546.60;;;18.70
68510;BMP180;55512;50.102;19.958;2023-09-08T07:23:54;99547.80;;;18.70
68510;BMP180;55512;50.102;19.958;2023-09-08T07:26:20;99547.40;;;18.80
68510;BMP180;55512;50.102;19.958;2023-09-08T07:28:45;99549.40;;;18.86
68510;BMP180;55512;50.102;19.958;2023-09-08T07:31:11;99550.80;;;18.90
68510;BMP180;55512;50.102;19.958;2023-09-08T07:33:37;99554.20;;;19.00
68510;BMP180;55512;50.102;19.958;2023-09-08T07:36:05;99552.60;;;19.06
68510;BMP180;55512;50.102;19.958;2023-09-08T07:38:31;99552.00;;;19.10
68510;BMP180;55512;50.102;19.958;2023-09-08T07:40:57;99546.60;;;19.20
68510;BMP180;55512;50.102;19.958;2023-09-08T07:43:25;99548.60;;;19.30
68510;BMP180;55512;50.102;19.958;2023-09-08T07:45:51;99552.60;;;19.36
68510;BMP180;55512;50.102;19.958;2023-09-08T07:48:16;99554.20;;;19.40
68510;BMP180;55512;50.102;19.958;2023-09-08T07:50:42;99554.80;;;19.50
68510;BMP180;55512;50.102;19.958;2023-09-08T07:53:07;99551.60;;;19.60
68510;BMP180;55512;50.102;19.958;2023-09-08T07:55:33;99553.80;;;19.60
68510;BMP180;55512;50.102;19.958;2023-09-08T07:58:00;99551.80;;;19.70
68510;BMP180;55512;50.102;19.958;2023-09-08T08:00:26;99555.80;;;19.80
68510;BMP180;55512;50.102;19.958;2023-09-08T08:02:55;99550.80;;;19.80
68510;BMP180;55512;50.102;19.958;2023-09-08T08:05:21;99548.40;;;19.90
68510;BMP180;55512;50.102;19.958;2023-09-08T08:07:47;99548.60;;;19.98
68510;BMP180;55512;50.102;19.958;2023-09-08T08:10:13;99546.00;;;20.00
68510;BMP180;55512;50.102;19.958;2023-09-08T08:12:42;99543.60;;;20.10
68510;BMP180;55512;50.102;19.958;2023-09-08T08:15:09;99549.80;;;20.20
68510;BMP180;55512;50.102;19.958;2023-09-08T08:17:36;99545.40;;;20.22
68510;BMP180;55512;50.102;19.958;2023-09-08T08:20:04;99545.00;;;20.30
68510;BMP180;55512;50.102;19.958;2023-09-08T08:22:37;99543.40;;;20.40
68510;BMP180;55512;50.102;19.958;2023-09-08T08:25:03;99539.40;;;20.40
68510;BMP180;55512;50.102;19.958;2023-09-08T08:27:29;99538.00;;;20.46
68510;BMP180;55512;50.102;19.958;2023-09-08T08:29:57;99536.60;;;20.50
68510;BMP180;55512;50.102;19.958;2023-09-08T08:32:25;99534.20;;;20.60
68510;BMP180;55512;50.102;19.958;2023-09-08T08:34:51;99535.00;;;20.70
68510;BMP180;55512;50.102;19.958;2023-09-08T08:37:16;99531.00;;;20.70
68510;BMP180;55512;50.102;19.958;2023-09-08T08:39:42;99534.40;;;20.80
68510;BMP180;55512;50.102;19.958;2023-09-08T08:42:09;99528.80;;;20.90
68510;BMP180;55512;50.102;19.958;2023-09-08T08:44:35;99527.20;;;20.92
68510;BMP180;55512;50.102;19.958;2023-09-08T08:47:03;99524.20;;;21.00
68510;BMP180;55512;50.102;19.958;2023-09-08T08:49:31;99522.60;;;21.10
68510;BMP180;55512;50.102;19.958;2023-09-08T08:51:58;99521.80;;;21.16
68510;BMP180;55512;50.102;19.958;2023-09-08T08:54:25;99523.00;;;21.20
68510;BMP180;55512;50.102;19.958;2023-09-08T08:56:51;99522.20;;;21.30
68510;BMP180;55512;50.102;19.958;2023-09-08T08:59:18;99518.40;;;21.32
68510;BMP180;55512;50.102;19.958;2023-09-08T09:01:44;99519.40;;;21.40
68510;BMP180;55512;50.102;19.958;2023-09-08T09:04:11;99522.60;;;21.50
68510;BMP180;55512;50.102;19.958;2023-09-08T09:06:37;99520.20;;;21.60
68510;BMP180;55512;50.102;19.958;2023-09-08T09:09:03;99518.00;;;21.60
68510;BMP180;55512;50.102;19.958;2023-09-08T09:11:33;99522.40;;;21.70
68510;BMP180;55512;50.102;19.958;2023-09-08T09:13:59;99522.40;;;21.80
68510;BMP180;55512;50.102;19.958;2023-09-08T09:16:24;99519.80;;;21.90
68510;BMP180;55512;50.102;19.958;2023-09-08T09:18:59;99516.80;;;22.00
68510;BMP180;55512;50.102;19.958;2023-09-08T09:21:42;99516.40;;;22.02
68510;BMP180;55512;50.102;19.958;2023-09-08T09:24:17;99507.80;;;22.10
68510;BMP180;55512;50.102;19.958;2023-09-08T09:26:53;99504.40;;;22.20
68510;BMP180;55512;50.102;19.958;2023-09-08T09:29:18;99504.80;;;22.30
68510;BMP180;55512;50.102;19.958;2023-09-08T09:31:56;99499.60;;;22.32
68510;BMP180;55512;50.102;19.958;2023-09-08T09:34:22;99498.00;;;22.40
68510;BMP180;55512;50.102;19.958;2023-09-08T09:36:50;99498.80;;;22.50
68510;BMP180;55512;50.102;19.958;2023-09-08T09:39:20;99496.40;;;22.60
68510;BMP180;55512;50.102;19.958;2023-09-08T09:41:48;99497.00;;;22.80
68510;BMP180;55512;50.102;19.958;2023-09-08T09:44:15;99495.80;;;22.90
68510;BMP180;55512;50.102;19.958;2023-09-08T09:46:45;99494.60;;;23.04
68510;BMP180;55512;50.102;19.958;2023-09-08T09:49:16;99492.60;;;23.20
68510;BMP180;55512;50.102;19.958;2023-09-08T09:51:48;99490.20;;;23.30
68510;BMP180;55512;50.102;19.958;2023-09-08T09:54:14;99483.00;;;23.50
68510;BMP180;55512;50.102;19.958;2023-09-08T09:56:42;99482.20;;;23.64
68510;BMP180;55512;50.102;19.958;2023-09-08T09:59:09;99483.00;;;23.80
68510;BMP180;55512;50.102;19.958;2023-09-08T10:01:37;99478.40;;;23.90
68510;BMP180;55512;50.102;19.958;2023-09-08T10:04:04;99481.40;;;24.10
68510;BMP180;55512;50.102;19.958;2023-09-08T10:06:39;99476.00;;;24.20
68510;BMP180;55512;50.102;19.958;2023-09-08T10:09:06;99481.00;;;24.30
68510;BMP180;55512;50.102;19.958;2023-09-08T10:11:48;99480.60;;;24.48
68510;BMP180;55512;50.102;19.958;2023-09-08T10:14:18;99475.40;;;24.60
68510;BMP180;55512;50.102;19.958;2023-09-08T10:16:46;99476.40;;;24.74
68510;BMP180;55512;50.102;19.958;2023-09-08T10:19:16;99478.00;;;24.90
68510;BMP180;55512;50.102;19.958;2023-09-08T10:21:45;99470.80;;;25.00
68510;BMP180;55512;50.102;19.958;2023-09-08T10:24:28;99471.00;;;25.16
68510;BMP180;55512;50.102;19.958;2023-09-08T10:27:11;99466.80;;;25.30
68510;BMP180;55512;50.102;19.958;2023-09-08T10:29:38;99465.00;;;25.40
68510;BMP180;55512;50.102;19.958;2023-09-08T10:32:07;99463.80;;;25.50
68510;BMP180;55512;50.102;19.958;2023-09-08T10:34:35;99459.60;;;25.60
68510;BMP180;55512;50.102;19.958;2023-09-08T10:37:01;99462.20;;;25.70
68510;BMP180;55512;50.102;19.958;2023-09-08T10:39:33;99464.20;;;25.80
68510;BMP180;55512;50.102;19.958;2023-09-08T10:47:12;99462.00;;;26.00
68510;BMP180;55512;50.102;19.958;2023-09-08T10:49:40;99457.60;;;26.10
68510;BMP180;55512;50.102;19.958;2023-09-08T10:52:12;99455.40;;;26.10
68510;BMP180;55512;50.102;19.958;2023-09-08T10:54:48;99460.60;;;26.20
68510;BMP180;55512;50.102;19.958;2023-09-08T10:57:18;99457.00;;;26.30
68510;BMP180;55512;50.102;19.958;2023-09-08T10:59:52;99447.40;;;26.40
68510;BMP180;55512;50.102;19.958;2023-09-08T11:05:12;99453.40;;;26.60
68510;BMP180;55512;50.102;19.958;2023-09-08T11:07:43;99452.00;;;26.70
68510;BMP180;55512;50.102;19.958;2023-09-08T11:10:12;99451.40;;;26.70
68510;BMP180;55512;50.102;19.958;2023-09-08T11:12:38;99450.80;;;26.80
68510;BMP180;55512;50.102;19.958;2023-09-08T11:15:07;99448.80;;;26.80
68510;BMP180;55512;50.102;19.958;2023-09-08T11:17:35;99448.20;;;26.80
68510;BMP180;55512;50.102;19.958;2023-09-08T11:20:05;99448.80;;;26.80
68510;BMP180;55512;50.102;19.958;2023-09-08T11:22:35;99449.80;;;26.80
68510;BMP180;55512;50.102;19.958;2023-09-08T11:25:02;99450.20;;;26.88
68510;BMP180;55512;50.102;19.958;2023-09-08T11:27:31;99446.00;;;26.90
68510;BMP180;55512;50.102;19.958;2023-09-08T11:29:57;99448.60;;;26.90
68510;BMP180;55512;50.102;19.958;2023-09-08T11:32:24;99440.60;;;26.84
68510;BMP180;55512;50.102;19.958;2023-09-08T11:34:50;99448.00;;;26.90
68510;BMP180;55512;50.102;19.958;2023-09-08T11:37:18;99451.80;;;26.90
68510;BMP180;55512;50.102;19.958;2023-09-08T11:39:46;99444.00;;;27.00
68510;BMP180;55512;50.102;19.958;2023-09-08T11:42:15;99440.60;;;27.00
68510;BMP180;55512;50.102;19.958;2023-09-08T11:44:42;99441.80;;;26.92
68510;BMP180;55512;50.102;19.958;2023-09-08T11:47:09;99444.80;;;26.90
68510;BMP180;55512;50.102;19.958;2023-09-08T11:49:36;99446.00;;;27.00
68510;BMP180;55512;50.102;19.958;2023-09-08T11:52:03;99442.60;;;27.10
68510;BMP180;55512;50.102;19.958;2023-09-08T11:54:38;99445.40;;;27.12
68510;BMP180;55512;50.102;19.958;2023-09-08T11:57:05;99442.20;;;27.20
68510;BMP180;55512;50.102;19.958;2023-09-08T11:59:34;99437.60;;;27.26
68510;BMP180;55512;50.102;19.958;2023-09-08T12:02:00;99439.60;;;27.30
68510;BMP180;55512;50.102;19.958;2023-09-08T12:04:26;99441.00;;;27.40
68510;BMP180;55512;50.102;19.958;2023-09-08T12:06:54;99438.20;;;27.50
68510;BMP180;55512;50.102;19.958;2023-09-08T12:09:21;99435.20;;;27.60
68510;BMP180;55512;50.102;19.958;2023-09-08T12:11:47;99433.40;;;27.70
68510;BMP180;55512;50.102;19.958;2023-09-08T12:14:15;99430.00;;;27.80
68510;BMP180;55512;50.102;19.958;2023-09-08T12:16:42;99428.60;;;27.90
68510;BMP180;55512;50.102;19.958;2023-09-08T12:19:30;99420.80;;;28.00
68510;BMP180;55512;50.102;19.958;2023-09-08T12:22:02;99421.20;;;28.04
68510;BMP180;55512;50.102;19.958;2023-09-08T12:24:56;99422.00;;;28.10
68510;BMP180;55512;50.102;19.958;2023-09-08T12:27:23;99420.20;;;28.20
68510;BMP180;55512;50.102;19.958;2023-09-08T12:30:07;99421.40;;;28.30
68510;BMP180;55512;50.102;19.958;2023-09-08T12:32:34;99422.20;;;28.30
68510;BMP180;55512;50.102;19.958;2023-09-08T12:35:04;99420.20;;;28.40
68510;BMP180;55512;50.102;19.958;2023-09-08T12:37:30;99418.60;;;28.50
68510;BMP180;55512;50.102;19.958;2023-09-08T12:39:58;99415.80;;;28.60
68510;BMP180;55512;50.102;19.958;2023-09-08T12:42:23;99409.40;;;28.60
68510;BMP180;55512;50.102;19.958;2023-09-08T12:44:55;99399.60;;;28.60
68510;BMP180;55512;50.102;19.958;2023-09-08T12:47:20;99405.80;;;28.60
68510;BMP180;55512;50.102;19.958;2023-09-08T12:49:46;99402.80;;;28.70
68510;BMP180;55512;50.102;19.958;2023-09-08T12:52:11;99404.40;;;28.80
68510;BMP180;55512;50.102;19.958;2023-09-08T12:54:37;99407.20;;;28.98
68510;BMP180;55512;50.102;19.958;2023-09-08T12:57:02;99401.20;;;29.10
68510;BMP180;55512;50.102;19.958;2023-09-08T12:59:28;99402.20;;;29.30
68510;BMP180;55512;50.102;19.958;2023-09-08T13:01:54;99402.40;;;29.40
68510;BMP180;55512;50.102;19.958;2023-09-08T13:04:20;99393.80;;;29.60
68510;BMP180;55512;50.102;19.958;2023-09-08T13:06:45;99390.40;;;29.60
68510;BMP180;55512;50.102;19.958;2023-09-08T13:09:11;99387.80;;;29.60
68510;BMP180;55512;50.102;19.958;2023-09-08T13:11:37;99385.00;;;29.70
68510;BMP180;55512;50.102;19.958;2023-09-08T13:14:02;99388.20;;;29.70
68510;BMP180;55512;50.102;19.958;2023-09-08T13:16:28;99384.60;;;29.76
68510;BMP180;55512;50.102;19.958;2023-09-08T13:18:54;99383.20;;;29.70
68510;BMP180;55512;50.102;19.958;2023-09-08T13:21:20;99387.60;;;29.70
68510;BMP180;55512;50.102;19.958;2023-09-08T13:23:46;99385.00;;;29.70
68510;BMP180;55512;50.102;19.958;2023-09-08T13:26:11;99382.20;;;29.80
68510;BMP180;55512;50.102;19.958;2023-09-08T13:28:37;99383.00;;;29.90
68510;BMP180;55512;50.102;19.958;2023-09-08T13:31:02;99385.20;;;30.00
68510;BMP180;55512;50.102;19.958;2023-09-08T13:33:28;99386.00;;;30.00
68510;BMP180;55512;50.102;19.958;2023-09-08T13:35:53;99382.40;;;30.00
68510;BMP180;55512;50.102;19.958;2023-09-08T13:38:20;99382.60;;;30.10
68510;BMP180;55512;50.102;19.958;2023-09-08T13:40:45;99379.40;;;30.00
68510;BMP180;55512;50.102;19.958;2023-09-08T13:43:11;99377.40;;;30.14
68510;BMP180;55512;50.102;19.958;2023-09-08T13:45:36;99377.60;;;30.30
68510;BMP180;55512;50.102;19.958;2023-09-08T13:48:02;99377.80;;;30.40
68510;BMP180;55512;50.102;19.958;2023-09-08T13:50:29;99374.80;;;30.40
68510;BMP180;55512;50.102;19.958;2023-09-08T13:52:55;99375.20;;;30.60
68510;BMP180;55512;50.102;19.958;2023-09-08T13:55:20;99373.20;;;30.80
68510;BMP180;55512;50.102;19.958;2023-09-08T13:57:49;99369.40;;;31.00
68510;BMP180;55512;50.102;19.958;2023-09-08T14:00:16;99367.60;;;31.24
68510;BMP180;55512;50.102;19.958;2023-09-08T14:02:43;99368.60;;;31.40
68510;BMP180;55512;50.102;19.958;2023-09-08T14:05:09;99367.80;;;31.70